Time;durP1;ratioP1;P1;durP2;ratioP2;P2;SDS_P1;SDS_P2;PMS_P1;PMS_P2;Temp;Humidity;BMP_temperature;BMP_pressure;BME280_temperature;BME280_humidity;BME280_pressure;Samples;Min_cycle;Max_cycle;Signal;HPM_P1;HPM_P2
2022/11/12 00:00:02;;;;;;;17.13;9.40;;;6.90;99.90;;;;;;5111901;27;20116;-51
2022/11/12 00:02:28;;;;;;;15.95;9.85;;;6.40;99.90;;;;;;5093352;28;20039;-46
2022/11/12 00:04:53;;;;;;;18.48;10.45;;;6.70;99.90;;;;;;5111706;27;20466;-48
2022/11/12 00:07:19;;;;;;;15.32;9.10;;;7.20;99.90;;;;;;5110543;28;20074;-46
2022/11/12 00:09:45;;;;;;;16.60;9.68;;;6.70;99.90;;;;;;5111417;28;20112;-51
2022/11/12 00:12:10;;;;;;;16.40;9.75;;;6.50;99.90;;;;;;5095698;28;20043;-50
2022/11/12 00:14:36;;;;;;;18.17;9.63;;;7.10;99.90;;;;;;5109430;28;20040;-48
2022/11/12 00:17:02;;;;;;;21.45;10.85;;;6.90;99.90;;;;;;5103996;28;20104;-47
2022/11/12 00:19:27;;;;;;;16.95;10.43;;;6.60;99.90;;;;;;5111594;27;20047;-48
2022/11/12 00:21:53;;;;;;;18.58;10.80;;;6.60;99.90;;;;;;5112260;27;20031;-47
2022/11/12 00:24:18;;;;;;;19.73;10.63;;;6.90;99.90;;;;;;5111799;27;20093;-50
2022/11/12 00:26:44;;;;;;;19.08;11.20;;;6.70;99.90;;;;;;5111909;27;20031;-48
2022/11/12 00:29:10;;;;;;;19.13;10.88;;;6.70;99.90;;;;;;5110537;28;20031;-47
2022/11/12 00:31:36;;;;;;;16.13;10.35;;;7.10;99.90;;;;;;5105396;28;20105;-47
2022/11/12 00:34:01;;;;;;;16.27;10.10;;;6.70;99.90;;;;;;5110342;28;20035;-47
2022/11/12 00:36:27;;;;;;;18.85;11.05;;;6.50;99.90;;;;;;5111228;28;20039;-46
2022/11/12 00:38:53;;;;;;;18.60;11.10;;;6.80;99.90;;;;;;5110353;28;20076;-47
2022/11/12 00:41:19;;;;;;;16.88;10.98;;;6.80;99.90;;;;;;5111407;28;20122;-48
2022/11/12 00:43:44;;;;;;;17.83;9.55;;;6.20;99.90;;;;;;5111318;27;20123;-49
2022/11/12 00:46:10;;;;;;;18.60;11.20;;;6.60;99.90;;;;;;5111043;28;20050;-48
2022/11/12 00:48:36;;;;;;;18.40;11.40;;;6.50;99.90;;;;;;5092351;28;20513;-49
2022/11/12 00:51:04;;;;;;;16.65;9.95;;;6.70;99.90;;;;;;5110740;28;20088;-47
2022/11/12 00:53:29;;;;;;;19.50;11.10;;;6.50;99.90;;;;;;5111496;27;20190;-48
2022/11/12 00:56:04;;;;;;;18.02;11.35;;;6.40;99.90;;;;;;5109461;27;20126;-48
2022/11/12 00:58:31;;;;;;;19.17;11.57;;;6.50;99.90;;;;;;5091930;28;20101;-49
2022/11/12 01:00:57;;;;;;;20.52;10.95;;;6.30;99.90;;;;;;5107479;28;20047;-48
2022/11/12 01:03:23;;;;;;;22.17;11.85;;;6.40;99.90;;;;;;5109925;28;20028;-48
2022/11/12 01:05:49;;;;;;;20.15;11.23;;;6.50;99.90;;;;;;5109462;28;20034;-50
2022/11/12 01:08:15;;;;;;;18.13;10.55;;;6.60;99.90;;;;;;5111341;28;20031;-48
2022/11/12 01:10:40;;;;;;;20.40;11.32;;;6.90;99.90;;;;;;5112199;28;20474;-49
2022/11/12 01:13:06;;;;;;;21.13;11.88;;;6.50;99.90;;;;;;5111055;28;20043;-49
2022/11/12 01:15:31;;;;;;;24.38;12.65;;;6.60;99.90;;;;;;5092437;28;20039;-48
2022/11/12 01:17:57;;;;;;;23.85;12.80;;;6.40;99.90;;;;;;5097600;28;20051;-49
2022/11/12 01:20:23;;;;;;;21.92;12.95;;;6.90;99.90;;;;;;5074150;28;20035;-48
2022/11/12 01:22:48;;;;;;;22.08;11.77;;;6.40;99.90;;;;;;5092278;28;20394;-49
2022/11/12 01:25:14;;;;;;;23.80;13.77;;;7.00;99.90;;;;;;5091909;28;20364;-48
2022/11/12 01:27:40;;;;;;;21.38;12.55;;;6.40;99.90;;;;;;5110440;28;20441;-51
2022/11/12 01:30:06;;;;;;;23.98;11.95;;;6.40;99.90;;;;;;5096528;27;20165;-49
2022/11/12 01:32:36;;;;;;;22.58;13.27;;;6.00;99.90;;;;;;5078975;28;20075;-49
2022/11/12 01:35:01;;;;;;;18.40;12.20;;;6.30;99.90;;;;;;5097816;27;20081;-47
2022/11/12 01:37:27;;;;;;;23.25;12.65;;;6.30;99.90;;;;;;5115257;27;20425;-47
2022/11/12 01:39:53;;;;;;;21.85;13.20;;;6.50;99.90;;;;;;5103973;27;20040;-49
2022/11/12 01:42:18;;;;;;;24.08;13.23;;;6.30;99.90;;;;;;5115330;27;20031;-49
2022/11/12 01:44:45;;;;;;;23.00;13.52;;;6.20;99.90;;;;;;5114073;27;20493;-49
2022/11/12 01:47:25;;;;;;;22.40;14.13;;;6.30;99.90;;;;;;5110668;27;20643;-48
2022/11/12 01:50:19;;;;;;;25.15;13.70;;;6.40;99.90;;;;;;5114823;27;20157;-49
2022/11/12 01:53:02;;;;;;;24.65;14.15;;;6.40;99.90;;;;;;5105908;28;20548;-46
2022/11/12 01:55:31;;;;;;;26.90;15.05;;;6.10;99.90;;;;;;5113707;27;20072;-47
2022/11/12 01:58:24;;;;;;;30.48;14.95;;;6.40;99.90;;;;;;5113704;27;20039;-47
2022/11/12 02:00:50;;;;;;;22.27;14.10;;;6.70;99.90;;;;;;5112311;27;20409;-53
2022/11/12 02:03:22;;;;;;;28.95;15.60;;;7.20;99.90;;;;;;5114922;27;20039;-48
2022/11/12 02:05:53;;;;;;;26.30;14.63;;;6.30;99.90;;;;;;5113284;27;20528;-49
2022/11/12 02:08:21;;;;;;;28.10;14.55;;;6.60;99.90;;;;;;5096810;28;20082;-49
2022/11/12 02:10:47;;;;;;;26.77;14.77;;;6.40;99.90;;;;;;5115864;27;20088;-48
2022/11/12 02:15:57;;;;;;;26.27;13.98;;;6.00;99.90;;;;;;5097464;28;20551;-49
2022/11/12 02:18:23;;;;;;;24.63;14.75;;;6.20;99.90;;;;;;5095336;28;20096;-49
2022/11/12 02:20:54;;;;;;;26.08;14.48;;;6.40;99.90;;;;;;5081706;27;20039;-51
2022/11/12 02:23:20;;;;;;;27.13;15.25;;;6.40;99.90;;;;;;5113940;27;20494;-48
2022/11/12 02:25:45;;;;;;;26.73;15.25;;;7.00;99.90;;;;;;5096305;27;20111;-50
2022/11/12 02:28:11;;;;;;;23.75;14.90;;;6.90;99.90;;;;;;5113659;27;20042;-47
2022/11/12 02:30:37;;;;;;;26.60;15.23;;;6.50;99.90;;;;;;5092602;28;20067;-48
2022/11/12 02:33:03;;;;;;;26.15;15.77;;;6.40;99.90;;;;;;5079204;27;20426;-49
2022/11/12 02:35:29;;;;;;;24.67;15.02;;;6.70;99.90;;;;;;5113035;27;20132;-49
2022/11/12 02:37:55;;;;;;;21.73;14.68;;;6.50;99.90;;;;;;5112711;28;20042;-47
2022/11/12 02:40:21;;;;;;;22.83;14.65;;;6.80;99.90;;;;;;5113497;27;20031;-49
2022/11/12 02:42:46;;;;;;;25.55;15.52;;;6.20;99.90;;;;;;5112351;28;20028;-48
2022/11/12 02:45:12;;;;;;;23.10;14.70;;;6.50;99.90;;;;;;5113340;28;20076;-48
2022/11/12 02:47:38;;;;;;;30.98;15.10;;;6.40;99.90;;;;;;5114099;27;20039;-47
2022/11/12 02:50:04;;;;;;;23.05;15.38;;;6.60;99.90;;;;;;5113550;27;20494;-49
2022/11/12 02:52:31;;;;;;;25.70;15.68;;;6.20;99.90;;;;;;5114206;27;20043;-47
2022/11/12 02:54:57;;;;;;;24.50;15.05;;;6.50;99.90;;;;;;5113505;27;20042;-47
2022/11/12 02:57:23;;;;;;;27.10;14.82;;;6.70;99.90;;;;;;5113823;27;20040;-48
2022/11/12 02:59:48;;;;;;;24.38;14.45;;;6.50;99.90;;;;;;5089888;28;20040;-47
2022/11/12 03:02:14;;;;;;;21.63;13.32;;;6.20;99.90;;;;;;5090278;28;20089;-47
2022/11/12 03:04:40;;;;;;;22.60;13.27;;;6.40;99.90;;;;;;5090445;28;20068;-47
2022/11/12 03:07:05;;;;;;;20.63;13.45;;;6.10;99.90;;;;;;5090458;28;20040;-48
2022/11/12 03:09:31;;;;;;;20.90;14.00;;;6.10;99.90;;;;;;5090002;28;20075;-49
2022/11/12 03:11:57;;;;;;;24.83;14.15;;;5.90;99.90;;;;;;5090206;28;20043;-51
2022/11/12 03:14:23;;;;;;;24.42;15.20;;;6.20;99.90;;;;;;5091673;28;20067;-52
2022/11/12 03:16:48;;;;;;;29.73;15.98;;;6.20;99.90;;;;;;5089660;28;20475;-49
2022/11/12 03:19:14;;;;;;;23.70;14.20;;;6.40;99.90;;;;;;5091413;28;20510;-48
2022/11/12 03:21:40;;;;;;;25.77;13.93;;;5.70;99.90;;;;;;5089525;28;20487;-48
2022/11/12 03:24:05;;;;;;;24.33;14.25;;;6.20;99.90;;;;;;5090658;28;20043;-48
2022/11/12 03:26:31;;;;;;;27.00;15.25;;;5.50;99.90;;;;;;5089636;28;20532;-47
2022/11/12 03:28:57;;;;;;;22.52;14.10;;;5.60;99.90;;;;;;5091084;28;20165;-47
2022/11/12 03:31:23;;;;;;;25.35;15.20;;;6.10;99.90;;;;;;5090087;28;20057;-47
2022/11/12 03:33:48;;;;;;;27.88;15.75;;;5.80;99.90;;;;;;5090619;28;20075;-47
2022/11/12 03:36:14;;;;;;;28.08;15.98;;;6.00;99.90;;;;;;5090281;28;20036;-47
2022/11/12 03:38:39;;;;;;;25.92;15.65;;;6.20;99.90;;;;;;5089510;28;20055;-47
2022/11/12 03:41:05;;;;;;;26.33;16.13;;;6.30;99.90;;;;;;5090525;28;20041;-46
2022/11/12 03:43:31;;;;;;;26.52;14.75;;;6.00;99.90;;;;;;5090641;28;20043;-47
2022/11/12 03:45:56;;;;;;;24.60;14.75;;;5.80;99.90;;;;;;5090005;28;20040;-46
2022/11/12 03:48:22;;;;;;;24.20;13.70;;;5.80;99.90;;;;;;5089671;28;20043;-46
2022/11/12 03:50:48;;;;;;;25.30;15.07;;;6.10;99.90;;;;;;5090205;28;20534;-47
2022/11/12 03:53:14;;;;;;;25.90;14.82;;;6.10;99.90;;;;;;5090426;28;20032;-48
2022/11/12 03:55:39;;;;;;;28.35;15.65;;;6.30;99.90;;;;;;5089788;28;20044;-47
2022/11/12 03:58:05;;;;;;;23.02;14.48;;;5.80;99.90;;;;;;5093140;28;20036;-47
2022/11/12 04:00:31;;;;;;;24.67;14.25;;;6.20;99.90;;;;;;5107212;27;20482;-48
2022/11/12 04:02:57;;;;;;;23.55;14.00;;;5.70;99.90;;;;;;5110000;28;20127;-48
2022/11/12 04:11:04;;;;;;;22.13;11.77;;;5.70;99.90;;;;;;5112398;27;20146;-48
2022/11/12 04:13:30;;;;;;;23.70;13.25;;;5.50;99.90;;;;;;5112192;27;20054;-47
2022/11/12 04:21:55;;;;;;;23.70;13.50;;;5.40;99.90;;;;;;5112958;27;20101;-47
2022/11/12 04:27:28;;;;;;;27.17;13.82;;;5.30;99.90;;;;;;5111008;27;20112;-47
2022/11/12 04:32:48;;;;;;;20.13;12.63;;;5.50;99.90;;;;;;5110791;27;20382;-47
2022/11/12 04:35:15;;;;;;;21.83;12.43;;;5.40;99.90;;;;;;5112248;27;20069;-49
2022/11/12 04:37:43;;;;;;;18.92;11.23;;;5.20;99.90;;;;;;5110981;27;20043;-50
2022/11/12 04:45:53;;;;;;;21.65;12.95;;;5.30;99.90;;;;;;5106147;27;20441;-49
2022/11/12 04:48:20;;;;;;;21.38;12.50;;;5.30;99.90;;;;;;5109704;28;20100;-47
2022/11/12 04:50:51;;;;;;;22.48;12.18;;;4.70;99.90;;;;;;5111363;27;20031;-48
2022/11/12 04:53:17;;;;;;;22.33;12.75;;;4.70;99.90;;;;;;5110772;28;20096;-47
2022/11/12 04:55:43;;;;;;;24.00;14.02;;;4.90;99.90;;;;;;5111217;28;20035;-47
2022/11/12 04:58:09;;;;;;;24.65;13.85;;;4.80;99.90;;;;;;5110686;28;20096;-48
2022/11/12 05:00:34;;;;;;;23.35;14.30;;;5.40;99.90;;;;;;5110888;28;20050;-51
2022/11/12 05:03:00;;;;;;;20.98;12.88;;;4.80;99.90;;;;;;5110349;28;20038;-48
2022/11/12 05:05:26;;;;;;;22.20;13.43;;;5.20;99.90;;;;;;5111058;28;20076;-50
2022/11/12 05:07:51;;;;;;;24.85;13.35;;;5.00;99.90;;;;;;5093971;28;20043;-50
2022/11/12 05:10:17;;;;;;;25.20;13.00;;;5.10;99.90;;;;;;5093019;28;20489;-47
2022/11/12 05:12:43;;;;;;;24.27;13.68;;;5.30;99.90;;;;;;5113066;28;20071;-47
2022/11/12 05:15:10;;;;;;;24.67;13.20;;;5.00;99.90;;;;;;5111518;28;20040;-47
2022/11/12 05:17:41;;;;;;;23.83;13.88;;;4.70;99.90;;;;;;5093370;28;20112;-46
2022/11/12 05:20:07;;;;;;;28.40;13.45;;;4.90;99.90;;;;;;5110323;28;20032;-46
2022/11/12 05:22:33;;;;;;;19.35;11.10;;;4.50;99.90;;;;;;5111447;28;20042;-47
2022/11/12 05:24:58;;;;;;;54.35;12.65;;;4.80;99.90;;;;;;5111849;28;20412;-50
2022/11/12 05:27:24;;;;;;;23.25;11.65;;;4.70;99.90;;;;;;5092955;28;20044;-46
2022/11/12 05:29:50;;;;;;;26.27;11.43;;;4.60;99.90;;;;;;5109394;28;20058;-46
2022/11/12 05:32:17;;;;;;;21.23;10.73;;;5.50;99.90;;;;;;5104790;28;20039;-47
2022/11/12 05:34:43;;;;;;;19.77;10.93;;;5.10;99.90;;;;;;5106906;28;20106;-47
2022/11/12 05:37:11;;;;;;;17.90;11.55;;;4.60;99.90;;;;;;5109272;28;20467;-47
2022/11/12 05:39:37;;;;;;;29.52;11.52;;;4.80;99.90;;;;;;5110789;28;20481;-47
2022/11/12 05:42:03;;;;;;;26.52;11.48;;;4.80;99.90;;;;;;5111430;28;20043;-48
2022/11/12 05:44:29;;;;;;;78.30;14.50;;;4.60;99.90;;;;;;5110702;28;20038;-48
2022/11/12 05:46:54;;;;;;;68.53;12.73;;;4.90;99.90;;;;;;5110320;28;20471;-47
2022/11/12 05:49:20;;;;;;;93.18;16.83;;;5.30;99.90;;;;;;5110492;28;20039;-47
2022/11/12 05:51:46;;;;;;;95.00;15.98;;;5.00;99.90;;;;;;5110557;28;20474;-51
2022/11/12 05:54:12;;;;;;;113.35;15.93;;;4.80;99.90;;;;;;5109980;28;20394;-48
2022/11/12 05:56:37;;;;;;;79.43;14.27;;;4.90;99.90;;;;;;5110023;28;20039;-48
2022/11/12 05:59:05;;;;;;;86.43;13.88;;;4.50;99.90;;;;;;5106685;28;20414;-47
2022/11/12 06:01:31;;;;;;;108.95;15.65;;;4.70;99.90;;;;;;5108751;28;20092;-47
2022/11/12 06:03:57;;;;;;;140.48;15.85;;;4.60;99.90;;;;;;5110867;28;20084;-48
2022/11/12 06:06:23;;;;;;;115.00;14.40;;;4.90;99.90;;;;;;5111689;28;20031;-49
2022/11/12 06:08:49;;;;;;;104.05;15.80;;;5.30;99.90;;;;;;5111072;28;20051;-47
2022/11/12 06:11:15;;;;;;;102.53;17.50;;;4.50;99.90;;;;;;5112391;28;20399;-48
2022/11/12 06:13:40;;;;;;;70.25;13.25;;;4.80;99.90;;;;;;5110884;28;20398;-48
2022/11/12 06:16:07;;;;;;;57.22;12.52;;;4.80;99.90;;;;;;5109633;27;20046;-46
2022/11/12 06:18:32;;;;;;;47.80;12.30;;;4.70;99.90;;;;;;5114622;27;20040;-47
2022/11/12 06:21:18;;;;;;;36.17;11.57;;;4.70;99.90;;;;;;5114572;27;20054;-46
2022/11/12 06:23:44;;;;;;;34.47;11.32;;;4.70;99.90;;;;;;5114092;28;20027;-47
2022/11/12 06:26:10;;;;;;;55.25;11.38;;;4.60;99.90;;;;;;5113434;27;20087;-47
2022/11/12 06:28:35;;;;;;;39.28;10.70;;;4.50;99.90;;;;;;5113761;27;20496;-47
2022/11/12 06:31:01;;;;;;;34.17;10.93;;;4.60;99.90;;;;;;5087793;28;20672;-47
2022/11/12 06:33:27;;;;;;;32.75;10.82;;;4.50;99.90;;;;;;5109607;28;20452;-46
2022/11/12 06:36:01;;;;;;;27.90;10.52;;;4.50;99.90;;;;;;5109871;28;20067;-48
2022/11/12 06:38:32;;;;;;;18.83;10.40;;;4.70;99.90;;;;;;5112865;28;20094;-47
2022/11/12 06:40:58;;;;;;;15.02;9.65;;;4.60;99.90;;;;;;5112255;28;20039;-47
2022/11/12 06:43:26;;;;;;;17.27;9.75;;;4.50;99.90;;;;;;5111116;28;20599;-46
2022/11/12 06:45:51;;;;;;;15.27;10.10;;;4.30;99.90;;;;;;5110079;28;20035;-47
2022/11/12 06:48:17;;;;;;;25.42;11.32;;;4.00;99.90;;;;;;5109717;28;20058;-48
2022/11/12 06:50:43;;;;;;;36.97;11.27;;;4.50;99.90;;;;;;5112077;28;20031;-47
2022/11/12 06:53:09;;;;;;;30.38;9.70;;;4.40;99.90;;;;;;5110413;28;20058;-47
2022/11/12 06:55:34;;;;;;;21.45;10.40;;;4.40;99.90;;;;;;5092365;28;20035;-48
2022/11/12 06:58:00;;;;;;;24.48;10.30;;;4.30;99.90;;;;;;5104653;28;20043;-46
2022/11/12 07:00:26;;;;;;;31.25;10.55;;;4.70;99.90;;;;;;5104913;28;20514;-47
2022/11/12 07:02:52;;;;;;;29.83;10.88;;;4.00;99.90;;;;;;5110424;28;20032;-49
2022/11/12 07:05:17;;;;;;;58.30;12.73;;;4.40;99.90;;;;;;5076289;28;20036;-46
2022/11/12 07:07:43;;;;;;;34.72;12.30;;;3.90;99.90;;;;;;5112706;27;20453;-47
2022/11/12 07:10:09;;;;;;;57.30;13.55;;;4.60;99.90;;;;;;5112168;27;20039;-48
2022/11/12 07:12:34;;;;;;;56.85;11.60;;;4.40;99.90;;;;;;5108965;28;20059;-47
2022/11/12 07:15:00;;;;;;;77.15;12.30;;;4.60;99.90;;;;;;5110666;27;20082;-46
2022/11/12 07:17:26;;;;;;;25.73;10.40;;;3.90;99.90;;;;;;5112823;27;20046;-48
2022/11/12 07:19:52;;;;;;;56.10;12.70;;;4.30;99.90;;;;;;5113372;27;20038;-48
2022/11/12 07:22:18;;;;;;;40.08;11.80;;;4.40;99.90;;;;;;5093614;28;20043;-47
2022/11/12 07:24:43;;;;;;;28.00;11.60;;;4.40;99.90;;;;;;5109751;28;20039;-48
2022/11/12 07:27:09;;;;;;;20.00;10.60;;;4.70;99.90;;;;;;5105489;28;20051;-49
2022/11/12 07:29:35;;;;;;;26.77;11.50;;;4.40;99.90;;;;;;5088153;28;20035;-49
2022/11/12 07:32:00;;;;;;;23.33;10.68;;;4.10;99.90;;;;;;5106877;28;20530;-47
2022/11/12 07:34:26;;;;;;;25.58;12.32;;;4.40;99.90;;;;;;5110038;28;20043;-47
2022/11/12 07:36:52;;;;;;;35.15;11.70;;;4.20;99.90;;;;;;5111197;28;20062;-47
2022/11/12 07:39:17;;;;;;;18.85;10.55;;;4.00;99.90;;;;;;5110033;28;20047;-48
2022/11/12 07:41:43;;;;;;;19.38;10.82;;;4.40;99.90;;;;;;5099157;28;20043;-49
2022/11/12 07:44:09;;;;;;;19.85;11.48;;;4.00;99.90;;;;;;5096802;28;20097;-46
2022/11/12 07:46:35;;;;;;;19.80;11.15;;;4.00;99.90;;;;;;5063369;28;20482;-47
2022/11/12 07:49:01;;;;;;;17.67;10.68;;;3.90;99.90;;;;;;5099866;28;20398;-48
2022/11/12 07:51:28;;;;;;;21.73;11.07;;;3.90;99.90;;;;;;5100454;28;20031;-47
2022/11/12 07:53:56;;;;;;;26.58;10.77;;;4.20;99.90;;;;;;5101354;28;20077;-48
2022/11/12 07:56:23;;;;;;;20.60;11.02;;;4.20;99.90;;;;;;5101591;28;20036;-47
2022/11/12 07:58:49;;;;;;;16.70;10.50;;;3.90;99.90;;;;;;5101388;28;20414;-47
2022/11/12 08:01:31;;;;;;;25.92;11.55;;;4.30;99.90;;;;;;5100663;28;20035;-46
2022/11/12 08:03:58;;;;;;;21.95;11.15;;;4.10;99.90;;;;;;5100990;28;20551;-52
2022/11/12 08:06:24;;;;;;;22.73;12.38;;;4.10;99.90;;;;;;5082534;28;20039;-47
2022/11/12 08:08:54;;;;;;;26.42;12.48;;;4.10;99.90;;;;;;5101020;28;20035;-49
2022/11/12 08:11:20;;;;;;;24.45;11.80;;;4.60;99.90;;;;;;5101626;28;20081;-46
2022/11/12 08:13:46;;;;;;;22.63;11.98;;;4.50;99.90;;;;;;5101307;28;20047;-47
2022/11/12 08:16:11;;;;;;;28.52;12.32;;;4.30;99.90;;;;;;5101348;28;20036;-47
2022/11/12 08:18:37;;;;;;;20.40;12.18;;;4.30;99.90;;;;;;5099750;28;20043;-47
2022/11/12 08:21:05;;;;;;;21.15;12.43;;;4.40;99.90;;;;;;5082418;28;20547;-48
2022/11/12 08:23:31;;;;;;;23.65;12.50;;;4.60;99.90;;;;;;5099525;28;20040;-48
2022/11/12 08:25:59;;;;;;;22.92;12.15;;;4.40;99.90;;;;;;5101507;28;20101;-46
2022/11/12 08:28:27;;;;;;;22.20;12.32;;;4.30;99.90;;;;;;5100253;28;20435;-47
2022/11/12 08:30:53;;;;;;;20.70;12.43;;;4.10;99.90;;;;;;5099007;28;20036;-49
2022/11/12 08:33:19;;;;;;;22.83;13.45;;;4.30;99.90;;;;;;5082950;28;20097;-46
2022/11/12 08:35:44;;;;;;;18.88;12.85;;;4.50;99.90;;;;;;5100204;28;20068;-47
2022/11/12 08:38:12;;;;;;;24.52;14.32;;;5.30;99.90;;;;;;5099114;28;20082;-48
2022/11/12 08:40:37;;;;;;;21.60;13.70;;;4.90;99.90;;;;;;5065636;28;20119;-51
2022/11/12 08:43:05;;;;;;;20.98;13.90;;;5.00;99.90;;;;;;5100011;28;20817;-47
2022/11/12 08:45:33;;;;;;;25.45;14.23;;;5.20;99.90;;;;;;5100373;28;20027;-49
2022/11/12 08:48:01;;;;;;;24.00;14.43;;;4.80;99.90;;;;;;5082788;28;20043;-47
2022/11/12 08:50:27;;;;;;;25.30;15.93;;;4.90;99.90;;;;;;5098858;28;20041;-49
2022/11/12 08:52:57;;;;;;;23.30;14.77;;;5.30;99.90;;;;;;5100817;28;20413;-47
2022/11/12 08:55:23;;;;;;;24.05;15.27;;;5.20;99.90;;;;;;5101933;28;20097;-47
2022/11/12 08:57:48;;;;;;;22.50;15.07;;;5.40;99.90;;;;;;5100947;28;20043;-47
2022/11/12 09:00:15;;;;;;;27.17;16.02;;;5.40;99.90;;;;;;5097794;28;20055;-48
2022/11/12 09:02:40;;;;;;;31.60;15.90;;;6.00;99.90;;;;;;5102033;28;20108;-47
2022/11/12 09:05:06;;;;;;;28.50;16.63;;;6.30;99.90;;;;;;5084272;28;20466;-46
2022/11/12 09:07:32;;;;;;;28.60;18.05;;;6.20;99.90;;;;;;5099206;28;20035;-47
2022/11/12 09:09:57;;;;;;;26.77;16.83;;;6.70;99.90;;;;;;5100385;28;20417;-47
2022/11/12 09:12:23;;;;;;;24.23;16.90;;;6.20;99.90;;;;;;5101909;28;20024;-49
2022/11/12 09:14:49;;;;;;;27.55;18.55;;;6.70;99.90;;;;;;5081420;28;20046;-47
2022/11/12 09:17:15;;;;;;;26.95;16.98;;;7.20;99.90;;;;;;5100606;28;20088;-49
2022/11/12 09:19:41;;;;;;;26.67;17.77;;;6.50;99.90;;;;;;5101410;28;20027;-49
2022/11/12 09:22:07;;;;;;;30.88;18.80;;;7.00;99.90;;;;;;5100815;28;20039;-47
2022/11/12 09:24:32;;;;;;;27.80;18.52;;;7.10;99.90;;;;;;5101033;28;20028;-47
2022/11/12 09:26:58;;;;;;;28.48;18.33;;;6.60;99.90;;;;;;5101774;28;20093;-46
2022/11/12 09:29:24;;;;;;;26.70;18.02;;;7.20;99.90;;;;;;5102102;28;20040;-48
2022/11/12 09:31:49;;;;;;;27.05;17.27;;;7.30;99.90;;;;;;5082608;28;20035;-49
2022/11/12 09:34:16;;;;;;;28.10;17.98;;;7.50;99.90;;;;;;5099872;28;20066;-46
2022/11/12 09:36:41;;;;;;;27.20;18.00;;;7.40;99.90;;;;;;5099421;28;20044;-49
2022/11/12 09:39:07;;;;;;;27.48;18.90;;;7.90;99.90;;;;;;5082537;28;20065;-47
2022/11/12 09:41:40;;;;;;;25.20;17.52;;;7.60;99.90;;;;;;5099962;28;20027;-48
2022/11/12 09:44:10;;;;;;;25.92;17.33;;;7.50;99.90;;;;;;5100870;28;20036;-48
2022/11/12 09:46:44;;;;;;;25.00;18.25;;;7.20;99.90;;;;;;5100629;28;20040;-46
2022/11/12 09:49:13;;;;;;;29.85;18.17;;;8.20;99.90;;;;;;5101081;28;20046;-49
2022/11/12 09:51:47;;;;;;;26.25;17.25;;;8.00;99.90;;;;;;5100319;28;20028;-49
2022/11/12 09:54:29;;;;;;;26.85;18.90;;;7.70;99.90;;;;;;5103362;28;20110;-48
2022/11/12 09:56:54;;;;;;;26.42;19.75;;;8.10;99.90;;;;;;5102494;28;20034;-51
2022/11/12 09:59:23;;;;;;;26.75;20.17;;;8.00;99.90;;;;;;5103274;28;20490;-50
2022/11/12 10:02:12;;;;;;;26.92;18.25;;;8.50;99.90;;;;;;5103091;27;20080;-48
2022/11/12 10:05:04;;;;;;;20.27;15.95;;;8.70;99.90;;;;;;5086088;28;20051;-49
2022/11/12 10:07:42;;;;;;;20.23;13.90;;;9.10;99.90;;;;;;5104599;27;20035;-49
2022/11/12 10:10:15;;;;;;;18.80;13.07;;;9.30;99.90;;;;;;5105454;27;20031;-47
2022/11/12 10:12:49;;;;;;;16.42;11.93;;;9.80;99.90;;;;;;5086948;28;20040;-49
2022/11/12 10:18:40;;;;;;;16.25;11.20;;;10.30;99.90;;;;;;5104073;27;20051;-48
2022/11/12 10:21:20;;;;;;;15.90;10.93;;;10.50;99.90;;;;;;5105620;27;20043;-48
2022/11/12 10:23:50;;;;;;;16.70;10.20;;;10.50;99.90;;;;;;5104670;28;20036;-48
2022/11/12 10:26:18;;;;;;;14.90;10.80;;;10.90;99.90;;;;;;5104647;28;20031;-51
2022/11/12 10:28:56;;;;;;;13.60;9.88;;;11.00;99.90;;;;;;5084381;28;20039;-48
2022/11/12 10:31:22;;;;;;;15.32;10.88;;;10.90;99.90;;;;;;5102261;27;20054;-50
2022/11/12 10:33:47;;;;;;;15.98;10.73;;;11.30;99.90;;;;;;5100007;28;20044;-46
2022/11/12 10:36:28;;;;;;;13.63;10.55;;;11.40;99.90;;;;;;5103883;27;20639;-46
2022/11/12 10:38:54;;;;;;;15.00;10.35;;;11.60;99.90;;;;;;5103319;28;20035;-46
2022/11/12 10:41:24;;;;;;;13.63;10.07;;;11.50;99.90;;;;;;5104283;28;20064;-50
2022/11/12 10:44:04;;;;;;;13.85;10.32;;;11.40;99.90;;;;;;5103497;28;20299;-47
2022/11/12 10:46:36;;;;;;;13.70;10.10;;;11.30;99.90;;;;;;5082181;28;20042;-47
2022/11/12 10:49:21;;;;;;;15.25;10.23;;;11.10;99.90;;;;;;5101213;28;20069;-51
2022/11/12 10:51:57;;;;;;;16.85;10.10;;;11.10;99.90;;;;;;5103076;28;22762;-50
2022/11/12 10:54:26;;;;;;;16.30;11.23;;;10.90;99.90;;;;;;5102543;28;20035;-48
2022/11/12 10:56:52;;;;;;;15.90;11.02;;;10.80;99.90;;;;;;5085007;28;20443;-48
2022/11/12 10:59:22;;;;;;;14.55;10.57;;;10.80;99.90;;;;;;5101842;28;20067;-48
2022/11/12 11:01:57;;;;;;;14.27;10.75;;;11.10;99.90;;;;;;5101589;28;20149;-48
2022/11/12 11:04:36;;;;;;;14.25;9.82;;;11.60;99.90;;;;;;5102380;28;20039;-48
2022/11/12 11:07:18;;;;;;;14.63;9.98;;;11.80;99.90;;;;;;5101889;28;20038;-48
2022/11/12 11:09:56;;;;;;;17.75;11.05;;;12.10;99.90;;;;;;5102320;28;20027;-48
2022/11/12 11:12:29;;;;;;;13.32;9.77;;;12.50;99.90;;;;;;5101016;28;20047;-48
2022/11/12 11:15:06;;;;;;;14.27;10.35;;;12.70;99.90;;;;;;5102031;28;20478;-48
2022/11/12 11:17:33;;;;;;;14.48;10.15;;;13.10;99.90;;;;;;5102084;28;20043;-47
2022/11/12 11:20:00;;;;;;;14.98;9.88;;;13.10;99.90;;;;;;5101511;28;20035;-46
2022/11/12 11:22:43;;;;;;;13.02;9.93;;;13.30;99.90;;;;;;5100677;28;20039;-49
2022/11/12 11:25:26;;;;;;;12.45;8.25;;;13.50;99.90;;;;;;5099118;28;20070;-48
2022/11/12 11:28:19;;;;;;;11.87;9.10;;;13.60;99.90;;;;;;5100667;28;20106;-47
2022/11/12 11:31:17;;;;;;;11.95;8.50;;;13.60;99.90;;;;;;5101898;28;20070;-48
2022/11/12 11:34:30;;;;;;;14.70;9.75;;;13.60;99.90;;;;;;5096791;28;20055;-49
2022/11/12 11:37:17;;;;;;;12.02;8.88;;;13.80;99.90;;;;;;5084416;28;20040;-46
2022/11/12 11:40:02;;;;;;;12.30;9.25;;;13.60;99.90;;;;;;5101787;28;20126;-47
2022/11/12 11:42:53;;;;;;;12.10;9.27;;;13.80;99.90;;;;;;5101629;28;20431;-48
2022/11/12 11:45:54;;;;;;;12.40;9.15;;;13.80;99.90;;;;;;5100577;28;20411;-47
2022/11/12 11:48:20;;;;;;;14.07;9.27;;;13.70;99.90;;;;;;5101447;28;20035;-51
2022/11/12 11:51:11;;;;;;;12.27;8.40;;;14.10;99.90;;;;;;5097753;28;20255;-49
2022/11/12 11:54:08;;;;;;;12.73;9.25;;;14.30;99.90;;;;;;5095830;28;20536;-49
2022/11/12 11:56:41;;;;;;;12.07;8.38;;;14.10;99.90;;;;;;5027871;28;20522;-48
2022/11/12 11:59:15;;;;;;;11.73;8.25;;;14.10;99.90;;;;;;5096505;28;20184;-49
2022/11/12 12:02:36;;;;;;;9.93;8.20;;;14.10;99.90;;;;;;5095345;28;20046;-48
2022/11/12 12:05:11;;;;;;;10.75;8.52;;;14.30;99.90;;;;;;5084041;28;20042;-47
2022/11/12 12:07:55;;;;;;;10.80;8.20;;;14.50;99.90;;;;;;5103049;27;20039;-49
2022/11/12 12:10:42;;;;;;;11.02;8.57;;;14.70;99.90;;;;;;5105617;27;20043;-50
2022/11/12 12:13:19;;;;;;;10.65;7.90;;;14.50;99.90;;;;;;5108453;27;20036;-48
2022/11/12 12:16:03;;;;;;;10.73;8.23;;;14.80;99.90;;;;;;5112001;27;20387;-49
2022/11/12 12:18:37;;;;;;;9.27;7.82;;;14.80;99.90;;;;;;5111324;27;20394;-48
2022/11/12 12:21:12;;;;;;;12.07;7.85;;;14.70;99.90;;;;;;5111307;28;20085;-50
2022/11/12 12:23:45;;;;;;;10.73;8.40;;;15.00;99.90;;;;;;5111212;27;20031;-48
2022/11/12 12:26:16;;;;;;;11.93;8.45;;;14.60;99.90;;;;;;5111524;27;20042;-49
2022/11/12 12:28:48;;;;;;;11.45;8.02;;;15.20;99.90;;;;;;5111529;28;20067;-49
2022/11/12 12:31:18;;;;;;;12.30;8.45;;;15.00;99.90;;;;;;5075927;27;20048;-50
2022/11/12 12:33:47;;;;;;;10.80;8.05;;;15.20;99.90;;;;;;5092438;28;20043;-49
2022/11/12 12:36:37;;;;;;;10.10;8.15;;;15.40;99.90;;;;;;5110656;28;20075;-50
2022/11/12 12:39:10;;;;;;;10.85;7.45;;;15.60;99.90;;;;;;5108927;28;20070;-48
2022/11/12 12:41:54;;;;;;;11.10;8.00;;;15.60;99.90;;;;;;5094774;28;20032;-49
2022/11/12 12:44:21;;;;;;;;;;;15.70;99.90;;;;;;5092221;28;20088;-51
2022/11/12 12:46:57;;;;;;;12.25;8.32;;;15.80;99.90;;;;;;5112802;27;19919;-49
2022/11/12 12:49:33;;;;;;;10.57;8.35;;;15.90;99.90;;;;;;5111907;27;20173;-48
2022/11/12 12:51:59;;;;;;;9.25;7.25;;;15.90;99.90;;;;;;5093754;28;20525;-48
2022/11/12 12:54:36;;;;;;;8.80;7.03;;;16.00;99.90;;;;;;5113154;27;20061;-50
2022/11/12 12:57:03;;;;;;;10.02;7.03;;;16.10;99.90;;;;;;5111819;28;20036;-49
2022/11/12 12:59:29;;;;;;;9.73;7.07;;;16.30;99.90;;;;;;5094016;28;20253;-47
2022/11/12 13:02:01;;;;;;;9.68;7.50;;;16.40;99.90;;;;;;5111664;28;20047;-50
2022/11/12 13:04:53;;;;;;;11.93;7.65;;;16.50;99.90;;;;;;5111421;28;20115;-49
2022/11/12 13:07:37;;;;;;;10.15;7.90;;;16.60;99.90;;;;;;5105483;28;20424;-48
2022/11/12 13:10:40;;;;;;;10.93;8.13;;;16.50;99.90;;;;;;5108391;28;20027;-52
2022/11/12 13:13:18;;;;;;;10.70;8.10;;;16.60;99.90;;;;;;5110872;28;20524;-49
2022/11/12 13:15:55;;;;;;;9.73;7.32;;;16.70;99.90;;;;;;5110081;28;20067;-50